Neil Armstrong — WARL — position and weather

sailwx.info

Track history (hours):
 
Tides and Currents Weather Stations Pressure Air Temp Water Temp Dewpoint Dewpoint Depression Visibility Wind Speed Wind Dir Waves Ship Positions

Oceanographic research ship Neil Armstrong (United States)

Owner: Woods Hole Oceanographic Institution, Woods Hole, MA. More information available from US FCC via Universal Licensing System and Coast Guard Vessel Documentation Center.

Last reported at 2018-May-25 20:00 UTC. Time now 2018-May-25 22:05 UTC.
Position N 58°18' W 024°48'.

Length 72 m; draft 4.4 m.

Type: Ship. MMSI: 338767000.

Wind from 180 at 29 knots

Barometer 1013.7 mb
Air temperature 8.9 ° C
Dewpoint 7.7 ° C
Water temperature 7.5 ° C

Date/timePositionNaut miles runAvg speedWind from/ knotsBaromVisibWave heightAir tempDewpointWater temp
2018-May-25 20:00N 58°18' W 024°48'6 6.0 180 / 291013.7 8.9 7.7 7.5
2018-May-25 19:00N 58°24' W 024°48'0 0.0 170 / 341013.5 8.8 7.4 7.5
2018-May-25 18:00N 58°24' W 024°48'0 0.0 160 / 321014.0 8.6 7.2 7.5
2018-May-25 17:00N 58°24' W 024°48'0 0.0 160 / 351015.1 8.6 7.2 7.5
2018-May-25 16:00N 58°24' W 024°48'3 3.1 160 / 321017.1 8.4 6.3 7.4
2018-May-25 15:00N 58°24' W 024°42'3 3.1 160 / 311018.5 8.6 7.0 7.6
2018-May-25 14:00N 58°24' W 024°48'0 0.0 160 / 271019.0 8.9 6.8 7.4
2018-May-25 13:00N 58°24' W 024°48'0 0.0 160 / 261019.5 8.7 6.8 7.4
2018-May-25 12:00N 58°24' W 024°48'0 0.0 160 / 221020.4 8.5 6.6 7.4
2018-May-25 11:00N 58°24' W 024°48'0 0.0 170 / 221021.3 8.5 6.6 7.4
2018-May-25 10:00N 58°24' W 024°48'0 0.0 170 / 201022.0 8.4 6.6 7.5
2018-May-25 09:00N 58°24' W 024°48'0 0.0 160 / 221022.0 8.4 6.4 7.3
2018-May-25 08:00N 58°24' W 024°48'0 0.0 170 / 201022.5 8.1 6.3 7.3
2018-May-25 07:00N 58°24' W 024°48'0 0.0 160 / 141023.1 8.0 5.9 7.3
2018-May-25 06:00N 58°24' W 024°48'0 0.0 170 / 141023.3 7.7 5.8 7.4
2018-May-25 05:00N 58°24' W 024°48'0 0.0 190 / 151023.7 7.6 5.8 7.4
2018-May-25 04:00N 58°24' W 024°48'0 0.0 190 / 121024.0 7.7 5.7 7.4
2018-May-25 03:00N 58°24' W 024°48'0 0.0 190 / 111024.2 7.5 4.9 7.4
2018-May-25 02:00N 58°24' W 024°48'0 0.0 220 / 131024.3 7.4 4.0 7.4
2018-May-25 01:00N 58°24' W 024°48'0 0.0 220 / 141024.1 7.3 3.2 7.4
2018-May-25 00:00N 58°24' W 024°48'0 0.0 230 / 171024.0 7.3 2.9 7.4
2018-May-24 23:00N 58°24' W 024°48'0 0.0 230 / 151023.7 7.4 2.8 7.4
2018-May-24 22:00N 58°24' W 024°48'0 0.0 250 / 191023.4 7.4 3.4 7.4
2018-May-24 21:00N 58°24' W 024°48'0 0.0 230 / 211022.8 7.5 3.5 7.4
2018-May-24 20:00N 58°24' W 024°48'0 0.0 240 / 181022.1 7.6 3.5 7.5
2018-May-24 18:00N 58°24' W 024°48'0 0.0 230 / 231020.9 7.7 3.3 7.6
2018-May-24 17:00N 58°24' W 024°48'0 0.0 220 / 201020.5 7.8 4.3 7.5
2018-May-24 16:00N 58°24' W 024°48'0 0.0 210 / 221020.2 7.3 4.3 7.5
2018-May-24 15:00N 58°24' W 024°48'0 0.0 200 / 191020.4 7.5 3.5 7.5
2018-May-24 14:00N 58°24' W 024°48'0 0.0 210 / 221020.5 7.3 2.6 7.5
2018-May-24 13:00N 58°24' W 024°48'0 0.0 220 / 191020.5 7.0 1.6 7.5
2018-May-24 12:00N 58°24' W 024°48'3 3.1 220 / 201020.3 6.9 0.9 7.5
2018-May-24 11:00N 58°24' W 024°54'3 3.1 220 / 161020.0 6.6 0.5 7.3
2018-May-24 10:00N 58°24' W 024°48'0 0.0 230 / 181019.5 6.4 0.9 7.3
2018-May-24 09:00N 58°24' W 024°48'0 0.0 230 / 151019.7 6.2 0.9 7.3
2018-May-24 08:00N 58°24' W 024°48'0 0.0 250 / 141019.0 6.3 0.3 7.3
2018-May-24 07:00N 58°24' W 024°48'0 0.0 240 / 141018.6 5.7 1.2 7.3
2018-May-24 06:00N 58°24' W 024°48'0 0.0 240 / 111018.5 6.1 1.1 7.4
2018-May-24 05:00N 58°24' W 024°48'0 0.0 270 / 181017.8 5.1 1.2 7.4
2018-May-24 04:00N 58°24' W 024°48'3 1.6 270 / 131017.3 6.4-0.2 7.4
2018-May-24 02:00N 58°24' W 024°42'6 6.3 270 / 111016.4 6.5 0.6 7.7
2018-May-24 01:00N 58°24' W 024°30'9 8.7 290 / 101016.1 6.9 2.3 7.7
2018-May-24 00:00N 58°18' W 024°18'3 3.2 300 / 91015.2 7.0 2.1 7.8
2018-May-23 23:00N 58°18' W 024°12'6 6.3 300 / 101015.1 7.2 2.2 8.1
2018-May-23 22:00N 58°18' W 024°00'3 3.2 330 / 121015.0 7.3 1.8 8.8
2018-May-23 21:00N 58°18' W 023°54'3 3.2 340 / 121014.8 7.4 2.1 8.9
2018-May-23 20:00N 58°18' W 023°48'6 6.3 340 / 141014.1 7.7 1.4 9.3
2018-May-23 19:00N 58°18' W 023°36'3 3.2 350 / 141013.6 7.9 1.6 9.4
2018-May-23 18:00N 58°18' W 023°30'0 0.0 360 / 131013.9 8.0 1.8 9.4
2018-May-23 17:00N 58°18' W 023°30'3 3.2 010 / 121013.0 7.9 2.3 9.4
2018-May-23 16:00N 58°18' W 023°24'7 6.8 040 / 61014.0 8.0 2.1 9.3
2018-May-23 15:00N 58°12' W 023°18'0 0.0 040 / 71013.7 8.0 2.2 9.2
2018-May-23 14:00N 58°12' W 023°18'3 3.2 070 / 51014.3 8.0 1.6 9.2
2018-May-23 13:00N 58°12' W 023°12'6 6.3 060 / 61014.5 7.9 2.1 9.2
2018-May-23 12:00N 58°12' W 023°00'0 0.0 080 / 51014.6 7.8 1.6 9.1
2018-May-23 11:00N 58°12' W 023°00'3 3.2 070 / 41014.6 7.7 1.1 9.1
2018-May-23 10:00N 58°12' W 022°54'6 6.3 330 1014.8 7.8 1.7 9.1
2018-May-23 09:00N 58°12' W 022°42'3 3.2 1014.7 7.8 2.4 9.0
2018-May-23 08:00N 58°12' W 022°36'3 3.2 160 / 41014.0 8.1 1.3 9.0
2018-May-23 07:00N 58°12' W 022°30'3 3.2 210 / 61014.6 8.1 1.4 9.1
2018-May-23 06:00N 58°12' W 022°36'0 0.0 210 / 81013.7 8.0 0.3 9.1
2018-May-23 05:00N 58°12' W 022°36'0 0.0 230 / 81013.0 8.0 1.0 9.0
2018-May-23 04:00N 58°12' W 022°36'0 0.0 250 / 141012.5 8.1 1.5 9.0
2018-May-23 03:00N 58°12' W 022°36'3 3.2 230 / 121012.2 8.2 2.9 9.0
2018-May-23 02:00N 58°12' W 022°30'1212.4 240 / 201012.2 8.3 3.5 9.0
2018-May-23 01:00N 58°00' W 022°24'3 3.2 220 / 151011.9 8.4 3.1 8.9
2018-May-23 00:00N 58°00' W 022°18'0 0.0 220 / 181011.2 8.4 1.4 8.9
2018-May-22 23:00N 58°00' W 022°18'7 6.8 240 / 241011.2 8.3 1.9 8.9
2018-May-22 22:00N 58°06' W 022°12'0 0.0 230 / 241010.1 8.6 1.8 8.9
2018-May-22 21:00N 58°06' W 022°12'0 0.0 230 / 221009.2 8.6 2.7 9.0
2018-May-22 20:00N 58°06' W 022°12'6 6.3 220 / 191008.6 8.6 3.2 9.0
2018-May-22 19:00N 58°06' W 022°24'10 9.5 220 / 221007.8 8.6 3.8 8.9
2018-May-22 18:00N 58°06' W 022°42'1111.3 220 / 251006.5 8.8 3.8 9.1
2018-May-22 17:00N 58°00' W 023°00'10 9.5 220 / 271006.1 8.6 4.3 9.0
2018-May-22 16:00N 58°00' W 023°18'6 6.4 220 / 281004.7 8.5 4.1 9.2
2018-May-22 15:00N 58°00' W 023°30'0 0.0 230 / 261003.9 8.7 5.7 9.1
2018-May-22 14:00N 58°00' W 023°30'6 6.0 230 / 281002.5 8.0 6.7 9.1
2018-May-22 13:00N 58°06' W 023°30'0 0.0 190 / 331001.7 9.5 8.3 9.3
2018-May-22 12:00N 58°06' W 023°30'6 6.0 190 / 381000.8 9.5 8.2 9.3
2018-May-22 11:00N 58°12' W 023°30'0 0.0 180 / 401000.5 9.3 7.7 9.3
2018-May-22 10:00N 58°12' W 023°30'0 0.0 170 / 441001.1 8.9 7.5 9.2
2018-May-22 09:00N 58°12' W 023°30'7 6.8 170 / 381001.5 9.1 6.8 9.1
2018-May-22 08:00N 58°18' W 023°36'0 0.0 170 / 411002.4 8.8 6.4 9.3
2018-May-22 07:00N 58°18' W 023°36'0 0.0 170 / 391003.9 8.5 5.8 9.2
2018-May-22 06:00N 58°18' W 023°36'7 6.8 170 / 401005.8 8.3 5.9 9.3
2018-May-22 05:00N 58°24' W 023°42'1212.0 170 / 361007.2 7.8 5.8 9.3
2018-May-22 04:00N 58°12' W 023°42'3 3.2 150 / 351008.7 7.7 5.4 9.0
2018-May-22 03:00N 58°12' W 023°48'3 3.2 180 / 391008.1 7.8 5.7 9.1
2018-May-22 02:00N 58°12' W 023°54'9 8.7 180 / 381009.0 7.9 6.1 8.9
2018-May-22 01:00N 58°18' W 024°06'3 3.2 180 / 311009.5 8.6 4.7 8.3
2018-May-22 00:00N 58°18' W 024°12'3 3.2 170 / 311010.7 8.1 4.2 8.3
2018-May-21 23:00N 58°18' W 024°18'9 8.7 180 / 301011.2 7.4 4.2 7.8
2018-May-21 22:00N 58°24' W 024°30'3 3.1 180 / 291011.8 7.4 4.3 7.4
2018-May-21 21:00N 58°24' W 024°36'6 6.3 180 / 291012.1 6.9 3.7 7.1
2018-May-21 20:00N 58°24' W 024°48'0 0.0 180 / 311012.7 6.6 3.7 7.3
2018-May-21 19:00N 58°24' W 024°48'7 6.8 180 / 221013.4 6.9 1.5 7.4
2018-May-21 18:00N 58°30' W 024°42'6 6.3 170 / 271014.1 6.8 2.8 7.5
2018-May-21 17:00N 58°30' W 024°30'3 3.1 180 / 211014.9 6.4 1.8 7.4
2018-May-21 16:00N 58°30' W 024°24'6 6.0 190 / 261015.4 6.7 1.8 7.9
2018-May-21 15:00N 58°24' W 024°24'3 3.1 190 / 261016.1 6.2 1.8 8.3
2018-May-21 14:00N 58°24' W 024°18'3 3.1 190 / 241016.6 6.6 1.9 8.5
2018-May-21 13:00N 58°24' W 024°12'0 0.0 210 / 181016.7 6.3 1.7 8.5
2018-May-21 12:00N 58°24' W 024°12'0 0.0 190 / 181016.7 6.2 0.6 8.5
2018-May-21 11:00N 58°24' W 024°12'3 3.1 190 / 161016.5 5.7 1.4 8.5
2018-May-21 10:00N 58°24' W 024°06'0 0.0 200 / 171016.3 6.6 1.0 8.6
2018-May-21 09:00N 58°24' W 024°06'3 3.1 220 / 141015.9 6.2 1.3 8.6
2018-May-21 08:00N 58°24' W 024°00'0 0.0 250 / 181015.8 5.7 1.6 8.7
2018-May-21 07:00N 58°24' W 024°00'3 3.1 250 / 141015.3 6.3 2.2 8.7
2018-May-21 06:00N 58°24' W 023°54'0 0.0 270 / 121014.6 6.4 0.9 8.7
2018-May-21 05:00N 58°24' W 023°54'0 0.0 270 / 151013.6 6.5 1.6 8.5
2018-May-21 04:00N 58°24' W 023°54'3 3.1 250 / 161013.0 6.4 2.5 8.4
2018-May-21 03:00N 58°24' W 023°48'0 0.0 240 / 211012.5 6.5 1.7 8.4
2018-May-21 02:00N 58°24' W 023°48'3 3.1 240 / 211011.7 6.4-0.4 8.4
2018-May-21 01:00N 58°24' W 023°42'0 0.0 240 / 201010.9 6.4 1.1 8.4
2018-May-21 00:00N 58°24' W 023°42'3 3.1 240 / 191010.5 6.5 0.2 8.4
2018-May-20 23:00N 58°24' W 023°36'0 0.0 240 / 241010.1 6.4-0.7 8.5
2018-May-20 22:00N 58°24' W 023°36'0 0.0 240 / 211009.3 6.4-0.4 8.8
2018-May-20 21:00N 58°24' W 023°36'0 0.0 240 / 211008.2 6.4-1.0 8.9
2018-May-20 20:00N 58°24' W 023°36'3 3.1 240 / 201007.5 6.4-0.3 9.2
2018-May-20 19:00N 58°24' W 023°30'0 0.0 230 / 221006.9 6.3-0.5 9.3
2018-May-20 18:00N 58°24' W 023°30'0 0.0 260 / 291006.2 6.2-0.1 9.2
2018-May-20 17:00N 58°24' W 023°30'0 0.0 250 / 241005.3 6.2-1.3 9.2
2018-May-20 16:00N 58°24' W 023°30'3 3.1 230 / 201004.8 6.2-1.0 9.2
2018-May-20 15:00N 58°24' W 023°24'0 0.0 240 / 231004.1 5.6-1.1 9.1
2018-May-20 14:00N 58°24' W 023°24'0 0.0 240 / 191003.7 4.9 0.1 9.0
2018-May-20 13:00N 58°24' W 023°24'0 0.0 220 / 171003.4 4.4 0.7 9.3
2018-May-20 12:00N 58°24' W 023°24'0 0.0 230 / 131003.1 3.2 1.3 9.3
2018-May-20 11:00N 58°24' W 023°24'7 6.8 210 / 211002.6 4.8 0.5 9.2
2018-May-20 10:00N 58°18' W 023°18'6 6.3 200 / 291002.2 5.0 0.6 9.2
2018-May-20 09:00N 58°18' W 023°06'6 6.3 240 / 201002.4 4.4 1.1 9.3
2018-May-20 08:00N 58°18' W 022°54'6 6.3 230 / 201002.4 4.9 0.5 8.9
2018-May-20 07:00N 58°18' W 022°42'9 8.7 240 / 251002.6 4.6-0.4 9.1
2018-May-20 06:00N 58°12' W 022°30'0 0.0 240 / 211002.7 4.6-0.8 8.9
2018-May-20 05:00N 58°12' W 022°30'3 3.2 230 / 261002.0 5.5-1.5 8.9
2018-May-20 04:00N 58°12' W 022°24'0 0.0 230 / 271002.2 5.5-0.9 8.9
2018-May-20 03:00N 58°12' W 022°24'1111.2 240 / 241001.9 4.1-0.2 8.9
2018-May-20 02:00N 58°18' W 022°42'9 9.5 230 / 311001.1 5.4-0.5 8.9
2018-May-20 01:00N 58°18' W 023°00'9 9.5 230 / 341000.9 5.1-1.3 9.2
2018-May-20 00:00N 58°18' W 023°18'1111.2 240 / 291001.3 3.2 0.4 9.4
2018-May-19 23:00N 58°24' W 023°36'9 9.4 230 / 361000.3 4.8-1.3 9.2
2018-May-19 22:00N 58°24' W 023°54'9 9.4 230 / 30999.6 4.2-0.7 8.4
2018-May-19 21:00N 58°24' W 024°12'9 8.7 250 / 26998.9 4.4 0.4 8.4
2018-May-19 20:00N 58°30' W 024°24'3 3.1 260 / 25998.1 3.9 0.2 7.5
2018-May-19 19:00N 58°30' W 024°18'6 6.3 230 / 26998.2 4.5-1.1 7.6
2018-May-19 18:00N 58°30' W 024°06'3 3.1 250 / 19997.9 3.5 0.5 8.4
2018-May-19 17:00N 58°30' W 024°00'9 8.7 240 / 31998.0 3.6-0.5 8.1
2018-May-19 16:00N 58°24' W 023°48'6 6.3 240 / 31997.6 5.0-0.6 9.0
2018-May-19 15:00N 58°24' W 023°36'6 6.3 230 / 24997.1 5.6-0.4 9.2
2018-May-19 14:00N 58°24' W 023°24'6 6.3 240 / 30997.1 5.6-2.7 9.2
2018-May-19 13:00N 58°24' W 023°12'3 3.1 250 / 27996.3 5.6-1.1 9.4
2018-May-19 12:00N 58°24' W 023°06'6 6.3 240 / 29996.2 6.0-1.3 9.3
2018-May-19 11:00N 58°24' W 022°54'6 6.3 260 / 31995.6 6.3 0.3 9.3
2018-May-19 10:00N 58°24' W 022°42'9 8.7 240 / 37994.7 6.3 1.3 9.2
2018-May-19 09:00N 58°18' W 022°30'6 6.0 260 / 29993.9 7.0 1.6 9.3
2018-May-19 08:00N 58°24' W 022°30'0 0.0 250 / 34992.4 8.0 3.0 9.3
2018-May-19 07:00N 58°24' W 022°30'0 0.0 240 / 32992.6 8.4 4.6 9.3
2018-May-19 06:00N 58°24' W 022°30'9 9.4 240 / 28991.4 8.7 6.6 9.3
2018-May-19 05:00N 58°24' W 022°48'1111.2 230 / 28991.2 9.0 7.7 9.3
2018-May-19 04:00N 58°30' W 023°06'6 6.3 210 / 25991.0 9.3 8.4 9.2
2018-May-19 03:00N 58°30' W 023°18'9 9.4 170 / 31991.1 9.0 8.1 9.3
2018-May-19 02:00N 58°30' W 023°36'6 6.3 140 / 25994.3 8.0 7.0 9.3
2018-May-19 01:00N 58°30' W 023°48'1111.1 150 / 25997.2 7.5 6.5 8.2
2018-May-19 00:00N 58°36' W 024°06'9 9.4 150 / 26999.1 7.0 5.9 7.6
2018-May-18 23:00N 58°36' W 024°24'0 0.0 160 / 271001.5 7.0 4.6 7.6
2018-May-18 22:00N 58°36' W 024°24'3 3.1 150 / 221004.0 7.4 3.4 7.6
2018-May-18 21:00N 58°36' W 024°18'7 6.8 160 / 191005.9 7.0 3.1 7.6
2018-May-18 20:00N 58°42' W 024°24'7 6.8 160 / 221007.0 6.3 2.2 7.7
2018-May-18 19:00N 58°48' W 024°30'1212.4 190 / 281009.0 5.8 2.2 8.1
2018-May-18 18:00N 59°00' W 024°36'7 6.7 190 / 241009.7 4.6 2.7 8.1
2018-May-18 17:00N 59°06' W 024°42'3 3.1 210 / 291010.9 4.9 2.3 8.1
2018-May-18 16:00N 59°06' W 024°36'0 0.0 190 / 191012.2 4.3 1.6 7.9
2018-May-18 15:00N 59°06' W 024°36'0 0.0 220 / 201013.2 4.2 1.8 7.8
2018-May-18 14:00N 59°06' W 024°36'3 3.1 200 / 221013.7 4.5 1.7 7.7
2018-May-18 13:00N 59°06' W 024°30'6 6.0 200 / 191014.4 4.1 1.3 7.7
2018-May-18 12:00N 59°12' W 024°30'1212.0 220 / 241014.3 3.8 1.7 7.8
2018-May-18 11:00N 59°24' W 024°30'6 6.0 230 / 241014.6 4.3 1.2 8.0
2018-May-18 10:00N 59°30' W 024°30'7 6.7 220 / 211014.7 3.7 0.5 8.0
2018-May-18 09:00N 59°36' W 024°24'3 3.0 250 / 171015.2 4.6-0.4 7.8
2018-May-18 08:00N 59°36' W 024°18'1212.1 260 / 261015.2 5.8-2.2 7.5
2018-May-18 07:00N 59°36' W 024°42'1110.9 240 / 281014.2 5.4-1.4 7.7
2018-May-18 06:00N 59°42' W 025°00'9 9.1 250 / 261014.2 5.1-2.2 7.6
2018-May-18 05:00N 59°42' W 025°18'1110.9 240 / 241013.9 5.1-1.6 7.5
2018-May-18 04:00N 59°48' W 025°36'9 9.1 250 / 321013.3 4.7-2.0 7.8
2018-May-18 03:00N 59°48' W 025°54'1110.9 260 / 261013.0 3.7 0.1 7.9
2018-May-18 02:00N 59°54' W 026°12'1110.8 230 / 321012.8 4.9-2.1 7.9
2018-May-18 01:00N 60°00' W 026°30'1110.8 240 / 241012.7 4.5-0.4 7.5
2018-May-18 00:00N 60°06' W 026°48'8 8.5 260 / 291012.3 2.5 0.3 7.5
2018-May-17 23:00N 60°12' W 027°00'7 6.7 250 / 201011.2 4.9-1.5 7.4
2018-May-17 22:00N 60°18' W 026°54'7 6.7 250 / 191010.1 5.0-0.4 7.5
2018-May-17 21:00N 60°24' W 026°48'6 6.0 240 / 271009.8 5.7-1.0 7.4
2018-May-17 20:00N 60°30' W 026°48'6 6.0 250 / 221008.8 5.6-0.0 7.4
2018-May-17 19:00N 60°36' W 026°48'1313.4 280 / 231007.8 5.8-1.9 7.4
2018-May-17 18:00N 60°48' W 027°00'9 8.8 270 / 231007.3 4.9 1.3 7.3
2018-May-17 17:00N 60°48' W 027°18'9 8.8 260 / 311005.6 5.4-0.9 7.3
2018-May-17 16:00N 60°48' W 027°36'1313.1 250 / 281004.6 4.7 0.2 7.4
2018-May-17 15:00N 60°54' W 028°00'7 6.7 260 / 241003.3 5.4-0.1 7.3
2018-May-17 14:00N 61°00' W 028°06'7 6.7 260 / 341001.7 4.9-0.8 7.3
2018-May-17 13:00N 61°06' W 028°00'7 6.7 280 / 35999.8 2.3 0.3 7.1
2018-May-17 12:00N 61°12' W 027°54'8 8.3 270 / 32998.1 4.0 2.6 7.0
2018-May-17 11:00N 61°18' W 027°42'8 8.3 140 / 29998.9 7.4 5.9 7.1
2018-May-17 10:00N 61°24' W 027°30'1010.5 130 / 281000.8 7.3 5.7 7.1
2018-May-17 09:00N 61°30' W 027°12'7 6.6 130 / 311003.4 7.3 5.5 7.3
2018-May-17 08:00N 61°36' W 027°06'8 8.3 130 / 291004.9 7.5 5.3 7.3
2018-May-17 07:00N 61°42' W 026°54'1313.3 140 / 271007.2 7.5 5.2 7.2
2018-May-17 06:00N 61°54' W 026°42'8 8.2 140 / 261009.0 7.5 5.2 7.3
2018-May-17 05:00N 62°00' W 026°30'8 8.2 150 / 241011.3 7.4 4.9 7.5
2018-May-17 04:00N 62°06' W 026°18'1010.3 150 / 221012.3 7.5 5.1 7.5
2018-May-17 03:00N 62°12' W 026°00'8 8.2 160 / 211013.7 7.4 4.9 7.5
2018-May-17 02:00N 62°18' W 025°48'1212.3 170 / 231015.7 7.5 4.6 7.5
2018-May-17 01:00N 62°30' W 025°42'8 8.2 170 / 191016.4 7.6 5.1 7.4
2018-May-17 00:00N 62°36' W 025°30'1313.2 190 / 171017.3 7.8 4.6 7.4
2018-May-16 23:00N 62°48' W 025°18'8 8.1 190 / 191017.5 7.5 5.3 7.5
2018-May-16 22:00N 62°54' W 025°06'8 8.1 210 / 211017.5 7.6 5.2 7.5
2018-May-16 21:00N 63°00' W 024°54'8 8.1 210 / 201017.7 7.7 4.8 7.7
2018-May-16 20:00N 63°06' W 024°42'8 8.1 210 / 201017.6 7.7 4.9 7.6
2018-May-16 19:00N 63°12' W 024°30'8 8.1 220 / 181017.8 7.6 5.1 7.4
2018-May-16 18:00N 63°18' W 024°18'14 7.2 240 / 231017.1 7.1 5.8 7.2
2018-May-16 16:00N 63°30' W 024°00'1313.1 220 / 161017.0 6.6 4.9 7.3
2018-May-16 15:00N 63°42' W 023°48'8 8.0 240 / 191016.3 7.0 3.1 7.2
2018-May-16 14:00N 63°48' W 023°36'8 8.0 260 / 171015.8 6.9 3.0 7.2
2018-May-16 13:00N 63°54' W 023°24'10 9.9 260 / 221014.6 6.9 3.4 7.1
2018-May-16 12:00N 64°00' W 023°06'8 8.0 240 / 241013.3 7.1 3.9 7.3
2018-May-16 11:00N 64°06' W 022°54'10 9.9 240 / 201012.0 7.2 3.7 7.4
2018-May-16 10:00N 64°12' W 022°36'1313.1 230 / 221011.4 6.9 3.8 7.0
2018-May-16 09:00N 64°12' W 022°06'5 5.2 220 / 161011.1 6.2 4.3 6.9
2018-May-16 08:00N 64°12' W 021°54'0 0.0 100 / 81011.2 4.9 2.9 7.0
2018-May-16 07:00N 64°12' W 021°54'0 0.0 100 / 141011.1 4.2 1.5 6.9
2018-May-16 06:00N 64°12' W 021°54'0 0.0 100 / 171011.1 4.1 1.3 7.0
2018-May-16 05:00N 64°12' W 021°54'0 0.0 100 / 151011.7 3.7 1.0 7.0
2018-May-16 04:00N 64°12' W 021°54'0 0.0 100 / 111012.4 4.0 0.9 7.0
2018-May-16 03:00N 64°12' W 021°54'0 0.0 110 / 71013.1 4.3 0.5 7.0
2018-May-16 02:00N 64°12' W 021°54'0 0.0 120 / 81014.0 4.5 0.5 7.1
2018-May-16 01:00N 64°12' W 021°54'0 0.0 160 / 51014.6 4.3 0.7 7.1
2018-May-16 00:00N 64°12' W 021°54'0 0.0 120 / 21015.2 4.5 0.9 7.1
2018-May-15 23:00N 64°12' W 021°54'0 0.0 150 / 51015.4 5.0-1.0 7.1
2018-May-15 22:00N 64°12' W 021°54'0 0.0 190 / 71015.7 5.6-1.4 7.1
2018-May-15 21:00N 64°12' W 021°54'0 0.0 210 / 101015.6 5.8-2.8 7.1
2018-May-15 20:00N 64°12' W 021°54'   250 / 121015.5 6.0-2.6 7.1
Track history (hours):
 
Tides and Currents Weather Stations Pressure Air Temp Water Temp Dewpoint Dewpoint Depression Visibility Wind Speed Wind Dir Waves Ship Positions

Oceanographic research ship Neil Armstrong (United States)

Owner: Woods Hole Oceanographic Institution, Woods Hole, MA. More information available from US FCC via Universal Licensing System and Coast Guard Vessel Documentation Center.

Last reported at 2018-May-25 20:00 UTC. Time now 2018-May-25 22:05 UTC.
Position N 58°18' W 024°48'.

Length 72 m; draft 4.4 m.

Type: Ship. MMSI: 338767000.

Wind from 180 at 29 knots

Barometer 1013.7 mb
Air temperature 8.9 ° C
Dewpoint 7.7 ° C
Water temperature 7.5 ° C

Date/timePositionNaut miles runAvg speedWind from/ knotsBaromVisibWave heightAir tempDewpointWater temp
2018-May-25 20:00N 58°18' W 024°48'6 6.0 180 / 291013.7 8.9 7.7 7.5
2018-May-25 19:00N 58°24' W 024°48'0 0.0 170 / 341013.5 8.8 7.4 7.5
2018-May-25 18:00N 58°24' W 024°48'0 0.0 160 / 321014.0 8.6 7.2 7.5
2018-May-25 17:00N 58°24' W 024°48'0 0.0 160 / 351015.1 8.6 7.2 7.5
2018-May-25 16:00N 58°24' W 024°48'3 3.1 160 / 321017.1 8.4 6.3 7.4
2018-May-25 15:00N 58°24' W 024°42'3 3.1 160 / 311018.5 8.6 7.0 7.6
2018-May-25 14:00N 58°24' W 024°48'0 0.0 160 / 271019.0 8.9 6.8 7.4
2018-May-25 13:00N 58°24' W 024°48'0 0.0 160 / 261019.5 8.7 6.8 7.4
2018-May-25 12:00N 58°24' W 024°48'0 0.0 160 / 221020.4 8.5 6.6 7.4
2018-May-25 11:00N 58°24' W 024°48'0 0.0 170 / 221021.3 8.5 6.6 7.4
2018-May-25 10:00N 58°24' W 024°48'0 0.0 170 / 201022.0 8.4 6.6 7.5
2018-May-25 09:00N 58°24' W 024°48'0 0.0 160 / 221022.0 8.4 6.4 7.3
2018-May-25 08:00N 58°24' W 024°48'0 0.0 170 / 201022.5 8.1 6.3 7.3
2018-May-25 07:00N 58°24' W 024°48'0 0.0 160 / 141023.1 8.0 5.9 7.3
2018-May-25 06:00N 58°24' W 024°48'0 0.0 170 / 141023.3 7.7 5.8 7.4
2018-May-25 05:00N 58°24' W 024°48'0 0.0 190 / 151023.7 7.6 5.8 7.4
2018-May-25 04:00N 58°24' W 024°48'0 0.0 190 / 121024.0 7.7 5.7 7.4
2018-May-25 03:00N 58°24' W 024°48'0 0.0 190 / 111024.2 7.5 4.9 7.4
2018-May-25 02:00N 58°24' W 024°48'0 0.0 220 / 131024.3 7.4 4.0 7.4
2018-May-25 01:00N 58°24' W 024°48'0 0.0 220 / 141024.1 7.3 3.2 7.4
2018-May-25 00:00N 58°24' W 024°48'0 0.0 230 / 171024.0 7.3 2.9 7.4
2018-May-24 23:00N 58°24' W 024°48'0 0.0 230 / 151023.7 7.4 2.8 7.4
2018-May-24 22:00N 58°24' W 024°48'0 0.0 250 / 191023.4 7.4 3.4 7.4
2018-May-24 21:00N 58°24' W 024°48'0 0.0 230 / 211022.8 7.5 3.5 7.4
2018-May-24 20:00N 58°24' W 024°48'0 0.0 240 / 181022.1 7.6 3.5 7.5
2018-May-24 18:00N 58°24' W 024°48'0 0.0 230 / 231020.9 7.7 3.3 7.6
2018-May-24 17:00N 58°24' W 024°48'0 0.0 220 / 201020.5 7.8 4.3 7.5
2018-May-24 16:00N 58°24' W 024°48'0 0.0 210 / 221020.2 7.3 4.3 7.5
2018-May-24 15:00N 58°24' W 024°48'0 0.0 200 / 191020.4 7.5 3.5 7.5
2018-May-24 14:00N 58°24' W 024°48'0 0.0 210 / 221020.5 7.3 2.6 7.5
2018-May-24 13:00N 58°24' W 024°48'0 0.0 220 / 191020.5 7.0 1.6 7.5
2018-May-24 12:00N 58°24' W 024°48'3 3.1 220 / 201020.3 6.9 0.9 7.5
2018-May-24 11:00N 58°24' W 024°54'3 3.1 220 / 161020.0 6.6 0.5 7.3
2018-May-24 10:00N 58°24' W 024°48'0 0.0 230 / 181019.5 6.4 0.9 7.3
2018-May-24 09:00N 58°24' W 024°48'0 0.0 230 / 151019.7 6.2 0.9 7.3
2018-May-24 08:00N 58°24' W 024°48'0 0.0 250 / 141019.0 6.3 0.3 7.3
2018-May-24 07:00N 58°24' W 024°48'0 0.0 240 / 141018.6 5.7 1.2 7.3
2018-May-24 06:00N 58°24' W 024°48'0 0.0 240 / 111018.5 6.1 1.1 7.4
2018-May-24 05:00N 58°24' W 024°48'0 0.0 270 / 181017.8 5.1 1.2 7.4
2018-May-24 04:00N 58°24' W 024°48'3 1.6 270 / 131017.3 6.4-0.2 7.4
2018-May-24 02:00N 58°24' W 024°42'6 6.3 270 / 111016.4 6.5 0.6 7.7
2018-May-24 01:00N 58°24' W 024°30'9 8.7 290 / 101016.1 6.9 2.3 7.7
2018-May-24 00:00N 58°18' W 024°18'3 3.2 300 / 91015.2 7.0 2.1 7.8
2018-May-23 23:00N 58°18' W 024°12'6 6.3 300 / 101015.1 7.2 2.2 8.1
2018-May-23 22:00N 58°18' W 024°00'3 3.2 330 / 121015.0 7.3 1.8 8.8
2018-May-23 21:00N 58°18' W 023°54'3 3.2 340 / 121014.8 7.4 2.1 8.9
2018-May-23 20:00N 58°18' W 023°48'6 6.3 340 / 141014.1 7.7 1.4 9.3
2018-May-23 19:00N 58°18' W 023°36'3 3.2 350 / 141013.6 7.9 1.6 9.4
2018-May-23 18:00N 58°18' W 023°30'0 0.0 360 / 131013.9 8.0 1.8 9.4
2018-May-23 17:00N 58°18' W 023°30'3 3.2 010 / 121013.0 7.9 2.3 9.4
2018-May-23 16:00N 58°18' W 023°24'7 6.8 040 / 61014.0 8.0 2.1 9.3
2018-May-23 15:00N 58°12' W 023°18'0 0.0 040 / 71013.7 8.0 2.2 9.2
2018-May-23 14:00N 58°12' W 023°18'3 3.2 070 / 51014.3 8.0 1.6 9.2
2018-May-23 13:00N 58°12' W 023°12'6 6.3 060 / 61014.5 7.9 2.1 9.2
2018-May-23 12:00N 58°12' W 023°00'0 0.0 080 / 51014.6 7.8 1.6 9.1
2018-May-23 11:00N 58°12' W 023°00'3 3.2 070 / 41014.6 7.7 1.1 9.1
2018-May-23 10:00N 58°12' W 022°54'6 6.3 330 1014.8 7.8 1.7 9.1
2018-May-23 09:00N 58°12' W 022°42'3 3.2 1014.7 7.8 2.4 9.0
2018-May-23 08:00N 58°12' W 022°36'3 3.2 160 / 41014.0 8.1 1.3 9.0
2018-May-23 07:00N 58°12' W 022°30'3 3.2 210 / 61014.6 8.1 1.4 9.1
2018-May-23 06:00N 58°12' W 022°36'0 0.0 210 / 81013.7 8.0 0.3 9.1
2018-May-23 05:00N 58°12' W 022°36'0 0.0 230 / 81013.0 8.0 1.0 9.0
2018-May-23 04:00N 58°12' W 022°36'0 0.0 250 / 141012.5 8.1 1.5 9.0
2018-May-23 03:00N 58°12' W 022°36'3 3.2 230 / 121012.2 8.2 2.9 9.0
2018-May-23 02:00N 58°12' W 022°30'1212.4 240 / 201012.2 8.3 3.5 9.0
2018-May-23 01:00N 58°00' W 022°24'3 3.2 220 / 151011.9 8.4 3.1 8.9
2018-May-23 00:00N 58°00' W 022°18'0 0.0 220 / 181011.2 8.4 1.4 8.9
2018-May-22 23:00N 58°00' W 022°18'7 6.8 240 / 241011.2 8.3 1.9 8.9
2018-May-22 22:00N 58°06' W 022°12'0 0.0 230 / 241010.1 8.6 1.8 8.9
2018-May-22 21:00N 58°06' W 022°12'0 0.0 230 / 221009.2 8.6 2.7 9.0
2018-May-22 20:00N 58°06' W 022°12'6 6.3 220 / 191008.6 8.6 3.2 9.0
2018-May-22 19:00N 58°06' W 022°24'10 9.5 220 / 221007.8 8.6 3.8 8.9
2018-May-22 18:00N 58°06' W 022°42'1111.3 220 / 251006.5 8.8 3.8 9.1
2018-May-22 17:00N 58°00' W 023°00'10 9.5 220 / 271006.1 8.6 4.3 9.0
2018-May-22 16:00N 58°00' W 023°18'6 6.4 220 / 281004.7 8.5 4.1 9.2
2018-May-22 15:00N 58°00' W 023°30'0 0.0 230 / 261003.9 8.7 5.7 9.1
2018-May-22 14:00N 58°00' W 023°30'6 6.0 230 / 281002.5 8.0 6.7 9.1
2018-May-22 13:00N 58°06' W 023°30'0 0.0 190 / 331001.7 9.5 8.3 9.3
2018-May-22 12:00N 58°06' W 023°30'6 6.0 190 / 381000.8 9.5 8.2 9.3
2018-May-22 11:00N 58°12' W 023°30'0 0.0 180 / 401000.5 9.3 7.7 9.3
2018-May-22 10:00N 58°12' W 023°30'0 0.0 170 / 441001.1 8.9 7.5 9.2
2018-May-22 09:00N 58°12' W 023°30'7 6.8 170 / 381001.5 9.1 6.8 9.1
2018-May-22 08:00N 58°18' W 023°36'0 0.0 170 / 411002.4 8.8 6.4 9.3
2018-May-22 07:00N 58°18' W 023°36'0 0.0 170 / 391003.9 8.5 5.8 9.2
2018-May-22 06:00N 58°18' W 023°36'7 6.8 170 / 401005.8 8.3 5.9 9.3
2018-May-22 05:00N 58°24' W 023°42'1212.0 170 / 361007.2 7.8 5.8 9.3
2018-May-22 04:00N 58°12' W 023°42'3 3.2 150 / 351008.7 7.7 5.4 9.0
2018-May-22 03:00N 58°12' W 023°48'3 3.2 180 / 391008.1 7.8 5.7 9.1
2018-May-22 02:00N 58°12' W 023°54'9 8.7 180 / 381009.0 7.9 6.1 8.9
2018-May-22 01:00N 58°18' W 024°06'3 3.2 180 / 311009.5 8.6 4.7 8.3
2018-May-22 00:00N 58°18' W 024°12'3 3.2 170 / 311010.7 8.1 4.2 8.3
2018-May-21 23:00N 58°18' W 024°18'9 8.7 180 / 301011.2 7.4 4.2 7.8
2018-May-21 22:00N 58°24' W 024°30'3 3.1 180 / 291011.8 7.4 4.3 7.4
2018-May-21 21:00N 58°24' W 024°36'6 6.3 180 / 291012.1 6.9 3.7 7.1
2018-May-21 20:00N 58°24' W 024°48'0 0.0 180 / 311012.7 6.6 3.7 7.3
2018-May-21 19:00N 58°24' W 024°48'7 6.8 180 / 221013.4 6.9 1.5 7.4
2018-May-21 18:00N 58°30' W 024°42'6 6.3 170 / 271014.1 6.8 2.8 7.5
2018-May-21 17:00N 58°30' W 024°30'3 3.1 180 / 211014.9 6.4 1.8 7.4
2018-May-21 16:00N 58°30' W 024°24'6 6.0 190 / 261015.4 6.7 1.8 7.9
2018-May-21 15:00N 58°24' W 024°24'3 3.1 190 / 261016.1 6.2 1.8 8.3
2018-May-21 14:00N 58°24' W 024°18'3 3.1 190 / 241016.6 6.6 1.9 8.5
2018-May-21 13:00N 58°24' W 024°12'0 0.0 210 / 181016.7 6.3 1.7 8.5
2018-May-21 12:00N 58°24' W 024°12'0 0.0 190 / 181016.7 6.2 0.6 8.5
2018-May-21 11:00N 58°24' W 024°12'3 3.1 190 / 161016.5 5.7 1.4 8.5
2018-May-21 10:00N 58°24' W 024°06'0 0.0 200 / 171016.3 6.6 1.0 8.6
2018-May-21 09:00N 58°24' W 024°06'3 3.1 220 / 141015.9 6.2 1.3 8.6
2018-May-21 08:00N 58°24' W 024°00'0 0.0 250 / 181015.8 5.7 1.6 8.7
2018-May-21 07:00N 58°24' W 024°00'3 3.1 250 / 141015.3 6.3 2.2 8.7
2018-May-21 06:00N 58°24' W 023°54'0 0.0 270 / 121014.6 6.4 0.9 8.7
2018-May-21 05:00N 58°24' W 023°54'0 0.0 270 / 151013.6 6.5 1.6 8.5
2018-May-21 04:00N 58°24' W 023°54'3 3.1 250 / 161013.0 6.4 2.5 8.4
2018-May-21 03:00N 58°24' W 023°48'0 0.0 240 / 211012.5 6.5 1.7 8.4
2018-May-21 02:00N 58°24' W 023°48'3 3.1 240 / 211011.7 6.4-0.4 8.4
2018-May-21 01:00N 58°24' W 023°42'0 0.0 240 / 201010.9 6.4 1.1 8.4
2018-May-21 00:00N 58°24' W 023°42'3 3.1 240 / 191010.5 6.5 0.2 8.4
2018-May-20 23:00N 58°24' W 023°36'0 0.0 240 / 241010.1 6.4-0.7 8.5
2018-May-20 22:00N 58°24' W 023°36'0 0.0 240 / 211009.3 6.4-0.4 8.8
2018-May-20 21:00N 58°24' W 023°36'0 0.0 240 / 211008.2 6.4-1.0 8.9
2018-May-20 20:00N 58°24' W 023°36'3 3.1 240 / 201007.5 6.4-0.3 9.2
2018-May-20 19:00N 58°24' W 023°30'0 0.0 230 / 221006.9 6.3-0.5 9.3
2018-May-20 18:00N 58°24' W 023°30'0 0.0 260 / 291006.2 6.2-0.1 9.2
2018-May-20 17:00N 58°24' W 023°30'0 0.0 250 / 241005.3 6.2-1.3 9.2
2018-May-20 16:00N 58°24' W 023°30'3 3.1 230 / 201004.8 6.2-1.0 9.2
2018-May-20 15:00N 58°24' W 023°24'0 0.0 240 / 231004.1 5.6-1.1 9.1
2018-May-20 14:00N 58°24' W 023°24'0 0.0 240 / 191003.7 4.9 0.1 9.0
2018-May-20 13:00N 58°24' W 023°24'0 0.0 220 / 171003.4 4.4 0.7 9.3
2018-May-20 12:00N 58°24' W 023°24'0 0.0 230 / 131003.1 3.2 1.3 9.3
2018-May-20 11:00N 58°24' W 023°24'7 6.8 210 / 211002.6 4.8 0.5 9.2
2018-May-20 10:00N 58°18' W 023°18'6 6.3 200 / 291002.2 5.0 0.6 9.2
2018-May-20 09:00N 58°18' W 023°06'6 6.3 240 / 201002.4 4.4 1.1 9.3
2018-May-20 08:00N 58°18' W 022°54'6 6.3 230 / 201002.4 4.9 0.5 8.9
2018-May-20 07:00N 58°18' W 022°42'9 8.7 240 / 251002.6 4.6-0.4 9.1
2018-May-20 06:00N 58°12' W 022°30'0 0.0 240 / 211002.7 4.6-0.8 8.9
2018-May-20 05:00N 58°12' W 022°30'3 3.2 230 / 261002.0 5.5-1.5 8.9
2018-May-20 04:00N 58°12' W 022°24'0 0.0 230 / 271002.2 5.5-0.9 8.9
2018-May-20 03:00N 58°12' W 022°24'1111.2 240 / 241001.9 4.1-0.2 8.9
2018-May-20 02:00N 58°18' W 022°42'9 9.5 230 / 311001.1 5.4-0.5 8.9
2018-May-20 01:00N 58°18' W 023°00'9 9.5 230 / 341000.9 5.1-1.3 9.2
2018-May-20 00:00N 58°18' W 023°18'1111.2 240 / 291001.3 3.2 0.4 9.4
2018-May-19 23:00N 58°24' W 023°36'9 9.4 230 / 361000.3 4.8-1.3 9.2
2018-May-19 22:00N 58°24' W 023°54'9 9.4 230 / 30999.6 4.2-0.7 8.4
2018-May-19 21:00N 58°24' W 024°12'9 8.7 250 / 26998.9 4.4 0.4 8.4
2018-May-19 20:00N 58°30' W 024°24'3 3.1 260 / 25998.1 3.9 0.2 7.5
2018-May-19 19:00N 58°30' W 024°18'6 6.3 230 / 26998.2 4.5-1.1 7.6
2018-May-19 18:00N 58°30' W 024°06'3 3.1 250 / 19997.9 3.5 0.5 8.4
2018-May-19 17:00N 58°30' W 024°00'9 8.7 240 / 31998.0 3.6-0.5 8.1
2018-May-19 16:00N 58°24' W 023°48'6 6.3 240 / 31997.6 5.0-0.6 9.0
2018-May-19 15:00N 58°24' W 023°36'6 6.3 230 / 24997.1 5.6-0.4 9.2
2018-May-19 14:00N 58°24' W 023°24'6 6.3 240 / 30997.1 5.6-2.7 9.2
2018-May-19 13:00N 58°24' W 023°12'3 3.1 250 / 27996.3 5.6-1.1 9.4
2018-May-19 12:00N 58°24' W 023°06'6 6.3 240 / 29996.2 6.0-1.3 9.3
2018-May-19 11:00N 58°24' W 022°54'6 6.3 260 / 31995.6 6.3 0.3 9.3
2018-May-19 10:00N 58°24' W 022°42'9 8.7 240 / 37994.7 6.3 1.3 9.2
2018-May-19 09:00N 58°18' W 022°30'6 6.0 260 / 29993.9 7.0 1.6 9.3
2018-May-19 08:00N 58°24' W 022°30'0 0.0 250 / 34992.4 8.0 3.0 9.3
2018-May-19 07:00N 58°24' W 022°30'0 0.0 240 / 32992.6 8.4 4.6 9.3
2018-May-19 06:00N 58°24' W 022°30'9 9.4 240 / 28991.4 8.7 6.6 9.3
2018-May-19 05:00N 58°24' W 022°48'1111.2 230 / 28991.2 9.0 7.7 9.3
2018-May-19 04:00N 58°30' W 023°06'6 6.3 210 / 25991.0 9.3 8.4 9.2
2018-May-19 03:00N 58°30' W 023°18'9 9.4 170 / 31991.1 9.0 8.1 9.3
2018-May-19 02:00N 58°30' W 023°36'6 6.3 140 / 25994.3 8.0 7.0 9.3
2018-May-19 01:00N 58°30' W 023°48'1111.1 150 / 25997.2 7.5 6.5 8.2
2018-May-19 00:00N 58°36' W 024°06'9 9.4 150 / 26999.1 7.0 5.9 7.6
2018-May-18 23:00N 58°36' W 024°24'0 0.0 160 / 271001.5 7.0 4.6 7.6
2018-May-18 22:00N 58°36' W 024°24'3 3.1 150 / 221004.0 7.4 3.4 7.6
2018-May-18 21:00N 58°36' W 024°18'7 6.8 160 / 191005.9 7.0 3.1 7.6
2018-May-18 20:00N 58°42' W 024°24'7 6.8 160 / 221007.0 6.3 2.2 7.7
2018-May-18 19:00N 58°48' W 024°30'1212.4 190 / 281009.0 5.8 2.2 8.1
2018-May-18 18:00N 59°00' W 024°36'7 6.7 190 / 241009.7 4.6 2.7 8.1
2018-May-18 17:00N 59°06' W 024°42'3 3.1 210 / 291010.9 4.9 2.3 8.1
2018-May-18 16:00N 59°06' W 024°36'0 0.0 190 / 191012.2 4.3 1.6 7.9
2018-May-18 15:00N 59°06' W 024°36'0 0.0 220 / 201013.2 4.2 1.8 7.8
2018-May-18 14:00N 59°06' W 024°36'3 3.1 200 / 221013.7 4.5 1.7 7.7
2018-May-18 13:00N 59°06' W 024°30'6 6.0 200 / 191014.4 4.1 1.3 7.7
2018-May-18 12:00N 59°12' W 024°30'1212.0 220 / 241014.3 3.8 1.7 7.8
2018-May-18 11:00N 59°24' W 024°30'6 6.0 230 / 241014.6 4.3 1.2 8.0
2018-May-18 10:00N 59°30' W 024°30'7 6.7 220 / 211014.7 3.7 0.5 8.0
2018-May-18 09:00N 59°36' W 024°24'3 3.0 250 / 171015.2 4.6-0.4 7.8
2018-May-18 08:00N 59°36' W 024°18'1212.1 260 / 261015.2 5.8-2.2 7.5
2018-May-18 07:00N 59°36' W 024°42'1110.9 240 / 281014.2 5.4-1.4 7.7
2018-May-18 06:00N 59°42' W 025°00'9 9.1 250 / 261014.2 5.1-2.2 7.6
2018-May-18 05:00N 59°42' W 025°18'1110.9 240 / 241013.9 5.1-1.6 7.5
2018-May-18 04:00N 59°48' W 025°36'9 9.1 250 / 321013.3 4.7-2.0 7.8
2018-May-18 03:00N 59°48' W 025°54'1110.9 260 / 261013.0 3.7 0.1 7.9
2018-May-18 02:00N 59°54' W 026°12'1110.8 230 / 321012.8 4.9-2.1 7.9
2018-May-18 01:00N 60°00' W 026°30'1110.8 240 / 241012.7 4.5-0.4 7.5
2018-May-18 00:00N 60°06' W 026°48'8 8.5 260 / 291012.3 2.5 0.3 7.5
2018-May-17 23:00N 60°12' W 027°00'7 6.7 250 / 201011.2 4.9-1.5 7.4
2018-May-17 22:00N 60°18' W 026°54'7 6.7 250 / 191010.1 5.0-0.4 7.5
2018-May-17 21:00N 60°24' W 026°48'6 6.0 240 / 271009.8 5.7-1.0 7.4
2018-May-17 20:00N 60°30' W 026°48'6 6.0 250 / 221008.8 5.6-0.0 7.4
2018-May-17 19:00N 60°36' W 026°48'1313.4 280 / 231007.8 5.8-1.9 7.4
2018-May-17 18:00N 60°48' W 027°00'9 8.8 270 / 231007.3 4.9 1.3 7.3
2018-May-17 17:00N 60°48' W 027°18'9 8.8 260 / 311005.6 5.4-0.9 7.3
2018-May-17 16:00N 60°48' W 027°36'1313.1 250 / 281004.6 4.7 0.2 7.4
2018-May-17 15:00N 60°54' W 028°00'7 6.7 260 / 241003.3 5.4-0.1 7.3
2018-May-17 14:00N 61°00' W 028°06'7 6.7 260 / 341001.7 4.9-0.8 7.3
2018-May-17 13:00N 61°06' W 028°00'7 6.7 280 / 35999.8 2.3 0.3 7.1
2018-May-17 12:00N 61°12' W 027°54'8 8.3 270 / 32998.1 4.0 2.6 7.0
2018-May-17 11:00N 61°18' W 027°42'8 8.3 140 / 29998.9 7.4 5.9 7.1
2018-May-17 10:00N 61°24' W 027°30'1010.5 130 / 281000.8 7.3 5.7 7.1
2018-May-17 09:00N 61°30' W 027°12'7 6.6 130 / 311003.4 7.3 5.5 7.3
2018-May-17 08:00N 61°36' W 027°06'8 8.3 130 / 291004.9 7.5 5.3 7.3
2018-May-17 07:00N 61°42' W 026°54'1313.3 140 / 271007.2 7.5 5.2 7.2
2018-May-17 06:00N 61°54' W 026°42'8 8.2 140 / 261009.0 7.5 5.2 7.3
2018-May-17 05:00N 62°00' W 026°30'8 8.2 150 / 241011.3 7.4 4.9 7.5
2018-May-17 04:00N 62°06' W 026°18'1010.3 150 / 221012.3 7.5 5.1 7.5
2018-May-17 03:00N 62°12' W 026°00'8 8.2 160 / 211013.7 7.4 4.9 7.5
2018-May-17 02:00N 62°18' W 025°48'1212.3 170 / 231015.7 7.5 4.6 7.5
2018-May-17 01:00N 62°30' W 025°42'8 8.2 170 / 191016.4 7.6 5.1 7.4
2018-May-17 00:00N 62°36' W 025°30'1313.2 190 / 171017.3 7.8 4.6 7.4
2018-May-16 23:00N 62°48' W 025°18'8 8.1 190 / 191017.5 7.5 5.3 7.5
2018-May-16 22:00N 62°54' W 025°06'8 8.1 210 / 211017.5 7.6 5.2 7.5
2018-May-16 21:00N 63°00' W 024°54'8 8.1 210 / 201017.7 7.7 4.8 7.7
2018-May-16 20:00N 63°06' W 024°42'8 8.1 210 / 201017.6 7.7 4.9 7.6
2018-May-16 19:00N 63°12' W 024°30'8 8.1 220 / 181017.8 7.6 5.1 7.4
2018-May-16 18:00N 63°18' W 024°18'14 7.2 240 / 231017.1 7.1 5.8 7.2
2018-May-16 16:00N 63°30' W 024°00'1313.1 220 / 161017.0 6.6 4.9 7.3
2018-May-16 15:00N 63°42' W 023°48'8 8.0 240 / 191016.3 7.0 3.1 7.2
2018-May-16 14:00N 63°48' W 023°36'8 8.0 260 / 171015.8 6.9 3.0 7.2
2018-May-16 13:00N 63°54' W 023°24'10 9.9 260 / 221014.6 6.9 3.4 7.1
2018-May-16 12:00N 64°00' W 023°06'8 8.0 240 / 241013.3 7.1 3.9 7.3
2018-May-16 11:00N 64°06' W 022°54'10 9.9 240 / 201012.0 7.2 3.7 7.4
2018-May-16 10:00N 64°12' W 022°36'1313.1 230 / 221011.4 6.9 3.8 7.0
2018-May-16 09:00N 64°12' W 022°06'5 5.2 220 / 161011.1 6.2 4.3 6.9
2018-May-16 08:00N 64°12' W 021°54'0 0.0 100 / 81011.2 4.9 2.9 7.0
2018-May-16 07:00N 64°12' W 021°54'0 0.0 100 / 141011.1 4.2 1.5 6.9
2018-May-16 06:00N 64°12' W 021°54'0 0.0 100 / 171011.1 4.1 1.3 7.0
2018-May-16 05:00N 64°12' W 021°54'0 0.0 100 / 151011.7 3.7 1.0 7.0
2018-May-16 04:00N 64°12' W 021°54'0 0.0 100 / 111012.4 4.0 0.9 7.0
2018-May-16 03:00N 64°12' W 021°54'0 0.0 110 / 71013.1 4.3 0.5 7.0
2018-May-16 02:00N 64°12' W 021°54'0 0.0 120 / 81014.0 4.5 0.5 7.1
2018-May-16 01:00N 64°12' W 021°54'0 0.0 160 / 51014.6 4.3 0.7 7.1
2018-May-16 00:00N 64°12' W 021°54'0 0.0 120 / 21015.2 4.5 0.9 7.1
2018-May-15 23:00N 64°12' W 021°54'0 0.0 150 / 51015.4 5.0-1.0 7.1
2018-May-15 22:00N 64°12' W 021°54'0 0.0 190 / 71015.7 5.6-1.4 7.1
2018-May-15 21:00N 64°12' W 021°54'0 0.0 210 / 101015.6 5.8-2.8 7.1
2018-May-15 20:00N 64°12' W 021°54'   250 / 121015.5 6.0-2.6 7.1

Dump ship's entire track history